Nok B738 at Chiang Rai on Jul 30th 2022, runway excursion on landing

Last Update: July 31, 2022 / 13:43:10 GMT/Zulu time

Bookmark this article
Incident Facts

Date of incident
Jul 30, 2022

Classification
Accident

Airline
NOK Air

Flight number
DD-108

Aircraft Registration
HS-DBR

Aircraft Type
Boeing 737-800

ICAO Type Designator
B738

Airport ICAO Code
VTCT

A Nok Air Boeing 737-800, registration HS-DBR performing flight DD-108 from Bangkok Don Muang to Chiang Rai (Thailand) with 164 passengers and 6 crew, landed on Chiang Rai's runway 03 at 21:04L (14:04Z) but veered left off the runway and came to a stop all wheels off the paved runway. There were no injuries.

The airline reported heavy rain caused the aircraft to slip on landing.

The airport reported on Sudnay (Jul 31st), that the runway is estimated to remain closed until about 22:00L.

On Jul 31st 2022 Authorities rated the occurrence an accident (signifying substantial damage to the aircraft), an investigation has been opened.

Related NOTAM:
A1554/22 NOTAMN
Q) VTBB/QMRLC/IV/NBO/A/000/999/1957N09953E005
A) VTCT B) 2207302300 C) 2207311500
E) RWY 03/21 CLSD DUE TO DISABLED ACFT

Metars:
VTCT 301600Z 24008KT 9999 -RA FEW035 24/24 Q1008 RETS NOSIG=
VTCT 301500Z 16006KT 140V200 8000 -TSRA FEW020CB SCT026 OVC048 23/23 Q1008 BECMG NSW=
VTCT 301400Z 33006KT 5000 -TSRA FEW018CB SCT018 BKN030 OVC049 25/25 Q1008 TEMPO 2000 TSRA=
VTCT 301300Z 15003KT 9999 -RA SCT040 25/25 Q1006 NOSIG=
VTCT 301200Z 06006KT 9999 VCTS FEW018CB SCT035 BKN060 25/25 Q1006 TEMPO 4500 TSRA=
VTCT 301100Z VRB02KT 9999 SCT025 25/24 Q1005 RETS TEMPO -TSRA FEW020CB=
VTCT 301000Z 15008KT 9999 TS FEW020CB SCT045 25/24 Q1004 BECMG NSW=
VTCT 300900Z 11006KT 080V160 9000 -TSRA FEW020CB SCT035 28/25 Q1004 BECMG TL0950 NSW=
Incident Facts

Date of incident
Jul 30, 2022

Classification
Accident

Airline
NOK Air

Flight number
DD-108

Aircraft Registration
HS-DBR

Aircraft Type
Boeing 737-800

ICAO Type Designator
B738

Airport ICAO Code
VTCT

This article is published under license from Avherald.com. © of text by Avherald.com.
Article source

You can read 2 more free articles without a subscription.

Subscribe now and continue reading without any limits!

Are you a subscriber? Login
Subscribe

Read unlimited articles and receive our daily update briefing. Gain better insights into what is happening in commercial aviation safety.

Free newsletter

Want to know more and stay ahead? Get our free weekly newsletter and join 5276 existing subscribers.

By subscribing, you accept our terms and conditions and confirm that you've read our privacy policy.

Send tip

Support AeroInside by sending a small tip amount.

Related articles

Newest articles

Subscribe today

Are you researching aviation incidents? Get access to AeroInside Insights, unlimited read access and receive the daily newsletter.

Pick your plan and subscribe

Partner

Blockaviation logo

A new way to document and demonstrate airworthiness compliance and aircraft value. Find out more.

Virtual Speech logo

ELITE Simulation Solutions is a leading global provider of Flight Simulation Training Devices, IFR training software as well as flight controls and related services. Find out more.

Get updates

Never miss an article from AeroInside. Subscribe to our free weekly newsletter and join 5276 existing subscribers.

By subscribing, you accept our terms and conditions and that you've read our privacy policy.

AeroInside Blog
Popular aircraft
Airbus A320
Boeing 737-800
Boeing 737-800 MAX
Popular airlines
American Airlines
United
Delta
Air Canada
Lufthansa
British Airways